createdAt,value
2023-06-25T00:00:00.049Z,22.98
2023-06-25T00:01:05.509Z,22.98
2023-06-25T00:02:11.022Z,22.98
2023-06-25T00:03:16.431Z,22.98
2023-06-25T00:04:21.989Z,22.98
2023-06-25T00:05:27.341Z,22.95
2023-06-25T00:06:32.674Z,22.97
2023-06-25T00:07:37.996Z,22.97
2023-06-25T00:08:43.322Z,22.95
2023-06-25T00:09:48.634Z,22.97
2023-06-25T00:10:53.958Z,22.97
2023-06-25T00:11:59.333Z,22.95
2023-06-25T00:13:04.641Z,22.97
2023-06-25T00:14:09.942Z,22.97
2023-06-25T00:15:15.339Z,22.95
2023-06-25T00:16:20.705Z,22.97
2023-06-25T00:17:26.076Z,22.96
2023-06-25T00:18:31.644Z,22.95
2023-06-25T00:19:37.214Z,22.96
2023-06-25T00:20:42.514Z,22.95
2023-06-25T00:21:47.870Z,22.96
2023-06-25T00:23:05.951Z,22.95
2023-06-25T00:24:12.298Z,22.95
2023-06-25T00:25:17.630Z,22.94
2023-06-25T00:26:22.987Z,22.96
2023-06-25T00:27:28.294Z,22.94
2023-06-25T00:28:33.623Z,22.96
2023-06-25T00:29:38.931Z,22.95
2023-06-25T00:30:44.332Z,22.95
2023-06-25T00:31:49.772Z,22.96
2023-06-25T00:32:55.191Z,22.96
2023-06-25T00:34:00.939Z,22.95
2023-06-25T00:35:06.252Z,22.95
2023-06-25T00:36:11.620Z,22.93
2023-06-25T00:37:16.946Z,22.94
2023-06-25T00:38:22.317Z,22.95
2023-06-25T00:39:27.612Z,22.95
2023-06-25T00:40:32.911Z,22.92
2023-06-25T00:41:38.686Z,22.94
2023-06-25T00:42:43.956Z,22.93
2023-06-25T00:43:49.253Z,22.95
2023-06-25T00:44:54.639Z,22.94
2023-06-25T00:45:59.958Z,22.92
2023-06-25T00:47:05.294Z,22.93
2023-06-25T00:48:10.608Z,22.93
2023-06-25T00:49:16.335Z,22.93
2023-06-25T00:50:21.642Z,22.93
2023-06-25T00:51:38.197Z,22.93
2023-06-25T00:52:43.514Z,22.93
2023-06-25T00:53:48.829Z,22.93
2023-06-25T00:54:54.126Z,22.93
2023-06-25T00:55:59.421Z,22.86
2023-06-25T00:57:04.726Z,22.9
2023-06-25T00:58:10.069Z,22.92
2023-06-25T00:59:15.411Z,22.92
2023-06-25T01:00:20.737Z,22.9
2023-06-25T01:01:26.121Z,22.91
2023-06-25T01:02:31.520Z,22.91
2023-06-25T01:03:37.192Z,22.91
2023-06-25T01:04:42.734Z,22.91
2023-06-25T01:05:48.040Z,22.91
2023-06-25T01:07:14.827Z,22.91
2023-06-25T01:08:20.362Z,22.91
2023-06-25T01:09:25.686Z,22.88
2023-06-25T01:10:30.995Z,22.9
2023-06-25T01:11:36.291Z,22.9
2023-06-25T01:12:41.619Z,22.9
2023-06-25T01:13:46.996Z,22.91
2023-06-25T01:14:52.320Z,22.9
2023-06-25T01:15:57.662Z,22.91
2023-06-25T01:17:03.021Z,22.88
2023-06-25T01:18:08.318Z,22.9
2023-06-25T01:19:13.603Z,22.87
2023-06-25T01:20:18.924Z,22.9
2023-06-25T01:21:24.238Z,22.89
2023-06-25T01:22:29.570Z,22.89
2023-06-25T01:23:34.934Z,22.87
2023-06-25T01:24:40.242Z,22.89
2023-06-25T01:25:45.561Z,22.88
2023-06-25T01:26:50.860Z,22.86
2023-06-25T01:27:56.160Z,22.89
2023-06-25T01:29:01.483Z,22.87
2023-06-25T01:30:06.779Z,22.89
2023-06-25T01:31:12.122Z,22.82
2023-06-25T01:32:17.428Z,22.88
2023-06-25T01:33:22.892Z,22.88
2023-06-25T01:34:28.242Z,22.88
2023-06-25T01:35:33.644Z,22.87
2023-06-25T01:36:39.872Z,22.88
2023-06-25T01:37:45.210Z,22.86
2023-06-25T01:38:50.582Z,22.85
2023-06-25T01:39:55.900Z,22.87
2023-06-25T01:41:01.204Z,22.87
2023-06-25T01:42:06.511Z,22.86
2023-06-25T01:43:11.864Z,22.87
2023-06-25T01:44:18.263Z,22.87
2023-06-25T01:45:25.871Z,22.84
2023-06-25T01:46:31.277Z,22.87
2023-06-25T01:47:36.783Z,22.86
2023-06-25T01:48:42.175Z,22.84
2023-06-25T01:49:47.652Z,22.8
2023-06-25T01:50:52.982Z,22.86
2023-06-25T01:51:58.251Z,22.86
2023-06-25T01:53:03.625Z,22.84
2023-06-25T01:54:08.918Z,22.86
2023-06-25T01:55:14.250Z,22.86
2023-06-25T01:56:19.551Z,22.86
2023-06-25T01:57:24.928Z,22.84
2023-06-25T01:58:30.380Z,22.86
2023-06-25T01:59:35.727Z,22.85
2023-06-25T02:00:41.054Z,22.83
2023-06-25T02:01:46.471Z,22.85
2023-06-25T02:02:52.128Z,22.83
2023-06-25T02:03:57.859Z,22.84
2023-06-25T02:05:03.282Z,22.84
2023-06-25T02:06:08.640Z,22.82
2023-06-25T02:07:13.986Z,22.84
2023-06-25T02:08:19.385Z,22.84
2023-06-25T02:09:24.822Z,22.84
2023-06-25T02:10:30.127Z,22.82
2023-06-25T02:11:35.463Z,22.84
2023-06-25T02:12:40.759Z,22.84
2023-06-25T02:13:46.060Z,22.83
2023-06-25T02:14:51.452Z,22.83
2023-06-25T02:15:56.825Z,22.81
2023-06-25T02:17:02.233Z,22.8
2023-06-25T02:18:07.551Z,22.81
2023-06-25T02:19:12.864Z,22.83
2023-06-25T02:20:18.226Z,22.82
2023-06-25T02:21:23.533Z,22.8
2023-06-25T02:22:29.031Z,22.83
2023-06-25T02:23:34.361Z,22.8
2023-06-25T02:24:39.682Z,22.8
2023-06-25T02:25:45.026Z,22.81
2023-06-25T02:26:50.352Z,22.82
2023-06-25T02:27:55.652Z,22.82
2023-06-25T02:29:00.999Z,22.8
2023-06-25T02:30:06.282Z,22.8
2023-06-25T02:31:11.662Z,22.81
2023-06-25T02:32:17.084Z,22.81
2023-06-25T02:33:22.453Z,22.81
2023-06-25T02:34:27.775Z,22.78
2023-06-25T02:35:33.061Z,22.81
2023-06-25T02:36:39.226Z,22.8
2023-06-25T02:37:44.556Z,22.77
2023-06-25T02:38:49.923Z,22.8
2023-06-25T02:39:55.211Z,22.78
2023-06-25T02:41:00.500Z,22.79
2023-06-25T02:42:05.878Z,22.79
2023-06-25T02:43:11.168Z,22.8
2023-06-25T02:44:16.491Z,22.77
2023-06-25T02:45:21.810Z,22.79
2023-06-25T02:46:27.139Z,22.77
2023-06-25T02:47:32.535Z,22.79
2023-06-25T02:48:38.016Z,22.79
2023-06-25T02:49:43.341Z,22.77
2023-06-25T02:50:48.674Z,22.79
2023-06-25T02:51:54.020Z,22.78
2023-06-25T02:52:59.392Z,22.79
2023-06-25T02:54:04.769Z,22.76
2023-06-25T02:55:10.113Z,22.78
2023-06-25T02:56:15.424Z,22.76
2023-06-25T02:57:20.751Z,22.78
2023-06-25T02:58:26.082Z,22.76
2023-06-25T02:59:31.367Z,22.78
2023-06-25T03:00:36.659Z,22.78
2023-06-25T03:01:41.957Z,22.76
2023-06-25T03:02:47.324Z,22.78
2023-06-25T03:03:53.062Z,22.77
2023-06-25T03:04:58.371Z,22.76
2023-06-25T03:06:03.652Z,22.77
2023-06-25T03:07:08.950Z,22.77
2023-06-25T03:08:14.371Z,22.77
2023-06-25T03:09:19.761Z,22.77
2023-06-25T03:10:25.073Z,22.76
2023-06-25T03:11:30.375Z,22.76
2023-06-25T03:12:35.662Z,22.76
2023-06-25T03:13:40.998Z,22.76
2023-06-25T03:14:46.480Z,22.74
2023-06-25T03:15:51.805Z,22.76
2023-06-25T03:16:57.133Z,22.74
2023-06-25T03:18:02.462Z,22.75
2023-06-25T03:19:08.006Z,22.73
2023-06-25T03:20:13.421Z,22.74
2023-06-25T03:21:18.748Z,22.73
2023-06-25T03:22:24.041Z,22.74
2023-06-25T03:23:29.347Z,22.75
2023-06-25T03:24:34.689Z,22.74
2023-06-25T03:25:40.636Z,22.75
2023-06-25T03:26:45.939Z,22.74
2023-06-25T03:27:51.232Z,22.74
2023-06-25T03:28:56.511Z,22.74
2023-06-25T03:30:01.818Z,22.74
2023-06-25T03:31:07.355Z,22.73
2023-06-25T03:32:12.976Z,22.73
2023-06-25T03:33:18.274Z,22.73
2023-06-25T03:34:23.691Z,22.71
2023-06-25T03:35:28.989Z,22.73
2023-06-25T03:36:34.352Z,22.71
2023-06-25T03:37:39.677Z,22.73
2023-06-25T03:38:44.991Z,22.72
2023-06-25T03:39:50.314Z,22.71
2023-06-25T03:40:55.613Z,22.73
2023-06-25T03:42:00.971Z,22.72
2023-06-25T03:43:06.289Z,22.7
2023-06-25T03:44:11.619Z,22.71
2023-06-25T03:45:17.066Z,22.72
2023-06-25T03:46:22.409Z,22.72
2023-06-25T03:47:27.798Z,22.72
2023-06-25T03:48:33.374Z,22.72
2023-06-25T03:49:38.813Z,22.72
2023-06-25T03:50:44.168Z,22.7
2023-06-25T03:51:49.511Z,22.72
2023-06-25T03:52:54.839Z,22.72
2023-06-25T03:54:00.329Z,22.72
2023-06-25T03:55:05.634Z,22.71
2023-06-25T03:56:10.958Z,22.71
2023-06-25T03:57:16.253Z,22.69
2023-06-25T03:58:21.597Z,22.71
2023-06-25T03:59:26.903Z,22.71
2023-06-25T04:00:32.204Z,22.71
2023-06-25T04:01:37.529Z,22.71
2023-06-25T04:02:43.087Z,22.7
2023-06-25T04:03:48.559Z,22.7
2023-06-25T04:04:53.992Z,22.71
2023-06-25T04:05:59.281Z,22.68
2023-06-25T04:07:04.640Z,22.7
2023-06-25T04:08:10.057Z,22.7
2023-06-25T04:09:15.369Z,22.68
2023-06-25T04:10:20.681Z,22.7
2023-06-25T04:11:25.980Z,22.7
2023-06-25T04:12:31.310Z,22.67
2023-06-25T04:13:36.653Z,22.69
2023-06-25T04:14:41.993Z,22.65
2023-06-25T04:15:47.291Z,22.67
2023-06-25T04:16:52.618Z,22.69
2023-06-25T04:17:58.136Z,22.67
2023-06-25T04:19:03.616Z,22.69
2023-06-25T04:20:08.968Z,22.69
2023-06-25T04:21:14.289Z,22.67
2023-06-25T04:22:19.608Z,22.69
2023-06-25T04:23:24.922Z,22.69
2023-06-25T04:24:30.228Z,22.67
2023-06-25T04:25:35.723Z,22.69
2023-06-25T04:26:41.830Z,22.69
2023-06-25T04:27:47.168Z,22.68
2023-06-25T04:28:52.476Z,22.68
2023-06-25T04:29:57.940Z,22.69
2023-06-25T04:31:03.331Z,22.68
2023-06-25T04:32:08.634Z,22.66
2023-06-25T04:33:14.193Z,22.67
2023-06-25T04:34:19.499Z,22.68
2023-06-25T04:35:24.821Z,22.66
2023-06-25T04:36:32.595Z,22.67
2023-06-25T04:37:37.938Z,22.68
2023-06-25T04:38:43.233Z,22.68
2023-06-25T04:39:48.539Z,22.68
2023-06-25T04:40:53.850Z,22.68
2023-06-25T04:41:59.195Z,22.67
2023-06-25T04:43:04.702Z,22.65
2023-06-25T04:44:09.995Z,22.68
2023-06-25T04:45:15.329Z,22.68
2023-06-25T04:46:20.647Z,22.66
2023-06-25T04:47:26.131Z,22.68
2023-06-25T04:48:31.760Z,22.68
2023-06-25T04:49:37.057Z,22.67
2023-06-25T04:50:42.480Z,22.68
2023-06-25T04:51:47.792Z,22.66
2023-06-25T04:52:53.108Z,22.67
2023-06-25T04:53:58.428Z,22.66
2023-06-25T04:55:03.793Z,22.67
2023-06-25T04:56:09.095Z,22.68
2023-06-25T04:57:14.373Z,22.67
2023-06-25T04:58:19.790Z,22.67
2023-06-25T04:59:25.109Z,22.65
2023-06-25T05:00:30.466Z,22.66
2023-06-25T05:01:35.967Z,22.67
2023-06-25T05:02:41.494Z,22.67
2023-06-25T05:03:46.944Z,22.68
2023-06-25T05:04:52.555Z,22.67
2023-06-25T05:05:57.892Z,22.67
2023-06-25T05:07:03.253Z,22.68
2023-06-25T05:08:08.706Z,22.67
2023-06-25T05:09:14.067Z,22.68
2023-06-25T05:10:19.398Z,22.67
2023-06-25T05:11:25.154Z,22.66
2023-06-25T05:12:30.443Z,22.67
2023-06-25T05:13:35.737Z,22.66
2023-06-25T05:14:41.060Z,22.65
2023-06-25T05:15:46.394Z,22.67
2023-06-25T05:16:51.698Z,22.67
2023-06-25T05:17:57.060Z,22.6
2023-06-25T05:19:02.540Z,22.67
2023-06-25T05:20:07.873Z,22.68
2023-06-25T05:21:13.187Z,22.67
2023-06-25T05:22:18.535Z,22.68
2023-06-25T05:23:24.014Z,22.66
2023-06-25T05:24:29.610Z,22.68
2023-06-25T05:25:35.088Z,22.68
2023-06-25T05:26:41.708Z,22.68
2023-06-25T05:27:47.028Z,22.68
2023-06-25T05:28:52.361Z,22.68
2023-06-25T05:29:57.655Z,22.69
2023-06-25T05:31:03.037Z,22.67
2023-06-25T05:32:08.490Z,22.67
2023-06-25T05:33:14.795Z,22.67
2023-06-25T05:34:20.155Z,22.69
2023-06-25T05:35:25.501Z,22.69
2023-06-25T05:36:30.815Z,22.68
2023-06-25T05:37:36.182Z,22.69
2023-06-25T05:38:41.584Z,22.69
2023-06-25T05:39:46.927Z,22.69
2023-06-25T05:40:52.736Z,22.7
2023-06-25T05:41:58.049Z,22.67
2023-06-25T05:43:03.361Z,22.68
2023-06-25T05:44:08.665Z,22.7
2023-06-25T05:45:13.993Z,22.7
2023-06-25T05:46:19.412Z,22.67
2023-06-25T05:47:24.801Z,22.7
2023-06-25T05:48:30.379Z,22.67
2023-06-25T05:49:35.700Z,22.7
2023-06-25T05:50:41.028Z,22.7
2023-06-25T05:51:46.357Z,22.7
2023-06-25T05:52:51.731Z,22.7
2023-06-25T05:53:57.058Z,22.7
2023-06-25T05:55:02.357Z,22.7
2023-06-25T05:56:07.725Z,22.71
2023-06-25T05:57:13.046Z,22.7
2023-06-25T05:58:18.357Z,22.7
2023-06-25T05:59:23.696Z,22.7
2023-06-25T06:00:28.999Z,22.63
2023-06-25T06:01:34.501Z,22.7
2023-06-25T06:02:40.055Z,22.71
2023-06-25T06:03:45.511Z,22.7
2023-06-25T06:04:50.855Z,22.7
2023-06-25T06:05:56.208Z,22.71
2023-06-25T06:07:01.522Z,22.71
2023-06-25T06:08:06.999Z,22.71
2023-06-25T06:09:12.316Z,22.71
2023-06-25T06:10:17.714Z,22.71
2023-06-25T06:11:23.016Z,22.71
2023-06-25T06:12:28.344Z,22.7
2023-06-25T06:13:33.677Z,22.7
2023-06-25T06:14:38.991Z,22.72
2023-06-25T06:15:44.325Z,22.72
2023-06-25T06:16:50.676Z,22.7
2023-06-25T06:17:55.980Z,22.72
2023-06-25T06:19:01.436Z,22.72
2023-06-25T06:20:06.804Z,22.7
2023-06-25T06:21:12.137Z,22.7
2023-06-25T06:22:17.464Z,22.72
2023-06-25T06:23:22.774Z,22.72
2023-06-25T06:24:28.071Z,22.72
2023-06-25T06:25:33.399Z,22.72
2023-06-25T06:26:39.552Z,22.72
2023-06-25T06:27:44.935Z,22.72
2023-06-25T06:28:50.253Z,22.73
2023-06-25T06:29:55.561Z,22.72
2023-06-25T06:31:00.917Z,22.73
2023-06-25T06:32:06.386Z,22.73
2023-06-25T06:33:11.678Z,22.72
2023-06-25T06:34:17.073Z,22.72
2023-06-25T06:35:22.376Z,22.73
2023-06-25T06:36:27.687Z,22.74
2023-06-25T06:37:33.002Z,22.73
2023-06-25T06:38:38.326Z,22.73
2023-06-25T06:39:45.097Z,22.73
2023-06-25T06:40:51.950Z,22.73
2023-06-25T06:41:57.311Z,22.73
2023-06-25T06:43:02.626Z,22.74
2023-06-25T06:44:07.936Z,22.75
2023-06-25T06:45:13.229Z,22.73
2023-06-25T06:46:18.548Z,22.74
2023-06-25T06:47:23.920Z,22.72
2023-06-25T06:48:29.379Z,22.74
2023-06-25T06:49:34.702Z,22.74
2023-06-25T06:50:40.100Z,22.74
2023-06-25T06:51:45.488Z,22.74
2023-06-25T06:52:50.866Z,22.74
2023-06-25T06:53:56.198Z,22.74
2023-06-25T06:55:01.529Z,22.73
2023-06-25T06:56:06.867Z,22.73
2023-06-25T06:57:12.182Z,22.74
2023-06-25T06:58:17.510Z,22.74
2023-06-25T06:59:22.826Z,22.73
2023-06-25T07:00:28.137Z,22.74
2023-06-25T07:01:33.470Z,22.74
2023-06-25T07:02:39.018Z,22.73
2023-06-25T07:03:44.632Z,22.74
2023-06-25T07:04:49.909Z,22.72
2023-06-25T07:05:55.234Z,22.74
2023-06-25T07:07:00.846Z,22.72
2023-06-25T07:08:06.286Z,22.74
2023-06-25T07:09:11.606Z,22.75
2023-06-25T07:10:16.929Z,22.75
2023-06-25T07:11:22.256Z,22.75
2023-06-25T07:12:27.739Z,22.75
2023-06-25T07:13:33.023Z,22.75
2023-06-25T07:14:38.380Z,22.75
2023-06-25T07:15:43.699Z,22.76
2023-06-25T07:16:48.994Z,22.73
2023-06-25T07:17:54.312Z,22.73
2023-06-25T07:18:59.745Z,22.74
2023-06-25T07:20:05.054Z,22.76
2023-06-25T07:21:10.381Z,22.75
2023-06-25T07:22:15.737Z,22.76
2023-06-25T07:23:21.190Z,22.77
2023-06-25T07:24:26.502Z,22.75
2023-06-25T07:25:31.829Z,22.76
2023-06-25T07:26:37.490Z,22.76
2023-06-25T07:27:42.838Z,22.76
2023-06-25T07:28:48.219Z,22.76
2023-06-25T07:29:53.532Z,22.77
2023-06-25T07:30:58.881Z,22.76
2023-06-25T07:32:06.029Z,22.76
2023-06-25T07:33:12.872Z,22.75
2023-06-25T07:34:18.468Z,22.75
2023-06-25T07:35:23.800Z,22.77
2023-06-25T07:36:29.173Z,22.77
2023-06-25T07:37:36.183Z,22.78
2023-06-25T07:38:43.070Z,22.77
2023-06-25T07:39:48.398Z,22.77
2023-06-25T07:40:53.710Z,22.77
2023-06-25T07:41:59.071Z,22.78
2023-06-25T07:43:04.379Z,22.76
2023-06-25T07:44:23.350Z,22.78
2023-06-25T07:46:00.099Z,22.78
2023-06-25T07:47:05.531Z,22.78
2023-06-25T07:48:10.837Z,22.79
2023-06-25T07:49:16.169Z,22.77
2023-06-25T07:50:21.477Z,22.8
2023-06-25T07:51:26.802Z,22.77
2023-06-25T07:52:32.196Z,22.8
2023-06-25T07:53:37.508Z,22.78
2023-06-25T07:54:42.817Z,22.8
2023-06-25T07:56:00.740Z,22.73
2023-06-25T07:57:09.082Z,22.8
2023-06-25T07:58:14.412Z,22.79
2023-06-25T07:59:19.690Z,22.81
2023-06-25T08:00:25.023Z,22.78
2023-06-25T08:01:30.388Z,22.81
2023-06-25T08:02:35.739Z,22.81
2023-06-25T08:03:41.520Z,22.82
2023-06-25T08:04:47.321Z,22.82
2023-06-25T08:05:53.224Z,22.82
2023-06-25T08:06:58.598Z,22.82
2023-06-25T08:08:04.084Z,22.81
2023-06-25T08:09:09.388Z,22.83
2023-06-25T08:10:14.713Z,22.83
2023-06-25T08:11:20.079Z,22.82
2023-06-25T08:12:25.440Z,22.81
2023-06-25T08:13:30.783Z,22.83
2023-06-25T08:14:36.084Z,22.84
2023-06-25T08:15:41.506Z,22.82
2023-06-25T08:16:47.581Z,22.84
2023-06-25T08:17:52.970Z,22.82
2023-06-25T08:18:58.513Z,22.84
2023-06-25T08:20:03.835Z,22.83
2023-06-25T08:21:09.176Z,22.84
2023-06-25T08:22:14.547Z,22.85
2023-06-25T08:23:19.930Z,22.85
2023-06-25T08:24:25.253Z,22.86
2023-06-25T08:25:30.586Z,22.86
2023-06-25T08:26:35.915Z,22.86
2023-06-25T08:27:41.276Z,22.86
2023-06-25T08:28:46.617Z,22.85
2023-06-25T08:29:51.938Z,22.87
2023-06-25T08:30:57.265Z,22.89
2023-06-25T08:32:02.816Z,22.86
2023-06-25T08:33:08.155Z,22.88
2023-06-25T08:34:13.482Z,22.85
2023-06-25T08:35:18.818Z,22.85
2023-06-25T08:36:24.176Z,22.84
2023-06-25T08:37:29.486Z,22.83
2023-06-25T08:38:34.867Z,22.82
2023-06-25T08:39:40.203Z,22.82
2023-06-25T08:40:45.548Z,22.81
2023-06-25T08:41:50.877Z,22.8
2023-06-25T08:42:56.186Z,22.8
2023-06-25T08:44:01.733Z,22.79
2023-06-25T08:45:07.078Z,22.76
2023-06-25T08:46:12.412Z,22.8
2023-06-25T08:47:17.819Z,22.79
2023-06-25T08:48:23.149Z,22.78
2023-06-25T08:49:28.484Z,22.78
2023-06-25T08:50:33.953Z,22.79
2023-06-25T08:51:39.302Z,22.79
2023-06-25T08:52:44.615Z,22.78
2023-06-25T08:53:49.959Z,22.77
2023-06-25T08:54:55.262Z,22.79
2023-06-25T08:56:00.572Z,22.79
2023-06-25T08:57:05.903Z,22.79
2023-06-25T08:58:11.235Z,22.78
2023-06-25T08:59:16.533Z,22.76
2023-06-25T09:00:22.300Z,22.77
2023-06-25T09:01:27.633Z,22.78
2023-06-25T09:02:33.042Z,22.78
2023-06-25T09:03:38.964Z,22.77
2023-06-25T09:04:44.265Z,22.76
2023-06-25T09:05:49.574Z,22.79
2023-06-25T09:07:04.221Z,22.78
2023-06-25T09:08:10.328Z,22.76
2023-06-25T09:09:15.653Z,22.77
2023-06-25T09:10:21.049Z,22.79
2023-06-25T09:11:26.475Z,22.79
2023-06-25T09:12:31.798Z,22.8
2023-06-25T09:13:37.184Z,22.77
2023-06-25T09:14:42.607Z,22.79
2023-06-25T09:15:47.922Z,22.78
2023-06-25T09:16:53.272Z,22.78
2023-06-25T09:17:58.617Z,22.8
2023-06-25T09:19:04.116Z,22.8
2023-06-25T09:20:09.456Z,22.78
2023-06-25T09:21:14.869Z,22.77
2023-06-25T09:22:20.146Z,22.8
2023-06-25T09:23:25.465Z,22.81
2023-06-25T09:24:30.811Z,22.78
2023-06-25T09:25:36.244Z,22.78
2023-06-25T09:26:41.576Z,22.81
2023-06-25T09:27:46.903Z,22.81
2023-06-25T09:28:52.287Z,22.78
2023-06-25T09:29:57.615Z,22.81
2023-06-25T09:31:03.015Z,22.81
2023-06-25T09:32:08.495Z,22.81
2023-06-25T09:33:13.875Z,22.78
2023-06-25T09:34:19.303Z,22.77
2023-06-25T09:35:24.661Z,22.8
2023-06-25T09:36:38.313Z,22.79
2023-06-25T09:37:44.602Z,22.78
2023-06-25T09:38:49.910Z,22.79
2023-06-25T09:39:55.256Z,22.8
2023-06-25T09:41:00.577Z,22.78
2023-06-25T09:42:06.084Z,22.8
2023-06-25T09:43:11.404Z,22.8
2023-06-25T09:44:16.708Z,22.76
2023-06-25T09:45:22.203Z,22.8
2023-06-25T09:46:27.534Z,22.77
2023-06-25T09:47:33.015Z,22.79
2023-06-25T09:48:38.492Z,22.79
2023-06-25T09:49:43.877Z,22.78
2023-06-25T09:50:50.051Z,22.79
2023-06-25T09:51:55.493Z,22.81
2023-06-25T09:53:00.805Z,22.8
2023-06-25T09:54:06.142Z,22.83
2023-06-25T09:55:11.587Z,22.83
2023-06-25T09:56:16.937Z,22.83
2023-06-25T09:57:22.329Z,22.85
2023-06-25T09:58:27.706Z,22.86
2023-06-25T09:59:33.208Z,22.85
2023-06-25T10:00:38.665Z,22.89
2023-06-25T10:01:44.101Z,22.89
2023-06-25T10:02:49.858Z,22.89
2023-06-25T10:03:55.563Z,22.9
2023-06-25T10:05:01.169Z,22.91
2023-06-25T10:06:06.494Z,22.9
2023-06-25T10:07:11.896Z,22.9
2023-06-25T10:08:17.409Z,22.92
2023-06-25T10:09:22.720Z,22.91
2023-06-25T10:10:28.053Z,22.93
2023-06-25T10:11:33.600Z,22.91
2023-06-25T10:12:39.336Z,22.93
2023-06-25T10:13:44.682Z,22.94
2023-06-25T10:14:50.096Z,22.95
2023-06-25T10:15:55.633Z,22.94
2023-06-25T10:17:01.072Z,22.93
2023-06-25T10:18:06.625Z,22.94
2023-06-25T10:19:12.379Z,22.92
2023-06-25T10:20:17.676Z,22.96
2023-06-25T10:21:23.013Z,22.93
2023-06-25T10:22:28.342Z,22.94
2023-06-25T10:23:33.678Z,22.91
2023-06-25T10:24:39.019Z,22.87
2023-06-25T10:25:44.479Z,22.92
2023-06-25T10:26:52.049Z,22.9
2023-06-25T10:27:57.421Z,22.9
2023-06-25T10:29:02.718Z,22.88
2023-06-25T10:30:08.037Z,22.89
2023-06-25T10:31:13.542Z,22.9
2023-06-25T10:32:19.864Z,22.91
2023-06-25T10:33:25.904Z,22.92
2023-06-25T10:34:31.414Z,22.9
2023-06-25T10:35:37.448Z,22.92
2023-06-25T10:36:43.671Z,22.94
2023-06-25T10:37:48.975Z,22.95
2023-06-25T10:38:54.324Z,22.96
2023-06-25T10:39:59.692Z,22.97
2023-06-25T10:41:04.995Z,22.97
2023-06-25T10:42:10.355Z,22.98
2023-06-25T10:43:15.671Z,22.97
2023-06-25T10:44:21.103Z,22.97
2023-06-25T10:45:26.420Z,22.96
2023-06-25T10:46:34.376Z,22.98
2023-06-25T10:47:40.873Z,22.98
2023-06-25T10:48:46.305Z,23
2023-06-25T10:49:51.639Z,23
2023-06-25T10:50:57.159Z,23
2023-06-25T10:52:02.492Z,22.98
2023-06-25T10:53:07.835Z,23.01
2023-06-25T10:54:13.149Z,23.02
2023-06-25T10:55:18.507Z,23.01
2023-06-25T10:56:23.878Z,23.04
2023-06-25T10:57:29.256Z,23.01
2023-06-25T10:58:34.553Z,23.04
2023-06-25T10:59:39.898Z,22.99
2023-06-25T11:00:45.279Z,23.03
2023-06-25T11:01:50.745Z,23.06
2023-06-25T11:02:56.181Z,23.07
2023-06-25T11:04:01.709Z,23.07
2023-06-25T11:05:07.126Z,23.08
2023-06-25T11:06:12.490Z,23.05
2023-06-25T11:07:17.939Z,23.07
2023-06-25T11:08:23.532Z,23.09
2023-06-25T11:09:28.914Z,23.07
2023-06-25T11:10:34.206Z,23.08
2023-06-25T11:11:39.928Z,23.1
2023-06-25T11:12:45.414Z,23.08
2023-06-25T11:13:50.799Z,23.11
2023-06-25T11:14:58.250Z,23.11
2023-06-25T11:16:04.764Z,23.11
2023-06-25T11:17:10.210Z,23.11
2023-06-25T11:18:15.539Z,23.11
2023-06-25T11:19:20.841Z,23.09
2023-06-25T11:20:27.287Z,23.1
2023-06-25T11:21:34.969Z,23.12
2023-06-25T11:22:40.532Z,23.12
2023-06-25T11:23:46.063Z,23.13
2023-06-25T11:24:51.724Z,23.13
2023-06-25T11:25:57.210Z,23.13
2023-06-25T11:27:06.045Z,23.13
2023-06-25T11:28:11.531Z,23.12
2023-06-25T11:29:16.918Z,23.13
2023-06-25T11:30:22.221Z,23.15
2023-06-25T11:31:27.739Z,23.15
2023-06-25T11:32:33.438Z,23.16
2023-06-25T11:33:39.197Z,23.15
2023-06-25T11:34:44.564Z,23.16
2023-06-25T11:35:49.972Z,23.15
2023-06-25T11:36:56.129Z,23.14
2023-06-25T11:38:01.448Z,23.14
2023-06-25T11:39:06.829Z,23.16
2023-06-25T11:40:12.182Z,23.15
2023-06-25T11:41:17.602Z,23.17
2023-06-25T11:42:23.152Z,23.17
2023-06-25T11:43:28.909Z,23.18
2023-06-25T11:44:35.112Z,23.15
2023-06-25T11:45:41.171Z,23.15
2023-06-25T11:46:46.483Z,23.18
2023-06-25T11:47:52.086Z,23.16
2023-06-25T11:48:57.687Z,23.18
2023-06-25T11:50:03.467Z,23.21
2023-06-25T11:51:08.811Z,23.21
2023-06-25T11:52:14.145Z,23.21
2023-06-25T11:53:19.466Z,23.18
2023-06-25T11:54:25.163Z,23.19
2023-06-25T11:55:33.510Z,23.14
2023-06-25T11:56:39.624Z,23.16
2023-06-25T11:57:45.018Z,23.13
2023-06-25T11:58:50.370Z,23.15
2023-06-25T11:59:55.949Z,23.12
2023-06-25T12:01:01.297Z,23.12
2023-06-25T12:02:06.609Z,23.12
2023-06-25T12:03:12.261Z,23.13
2023-06-25T12:04:17.714Z,23.11
2023-06-25T12:05:23.323Z,23.12
2023-06-25T12:06:28.675Z,23.12
2023-06-25T12:07:34.079Z,23.11
2023-06-25T12:08:39.433Z,23.11
2023-06-25T12:09:44.736Z,23.07
2023-06-25T12:10:50.051Z,23.08
2023-06-25T12:11:55.364Z,23.04
2023-06-25T12:13:00.670Z,23.04
2023-06-25T12:14:06.028Z,23.05
2023-06-25T12:15:11.409Z,22.95
2023-06-25T12:16:16.707Z,23.04
2023-06-25T12:17:22.025Z,23.03
2023-06-25T12:18:27.393Z,23.02
2023-06-25T12:19:32.687Z,23.03
2023-06-25T12:20:38.027Z,23.04
2023-06-25T12:21:43.320Z,23.02
2023-06-25T12:22:48.772Z,23.04
2023-06-25T12:23:54.184Z,23.01
2023-06-25T12:24:59.516Z,23.02
2023-06-25T12:26:04.802Z,23.02
2023-06-25T12:27:10.097Z,23
2023-06-25T12:28:15.404Z,23.02
2023-06-25T12:29:20.755Z,23
2023-06-25T12:30:26.115Z,23.01
2023-06-25T12:31:31.486Z,23.01
2023-06-25T12:32:37.006Z,23.02
2023-06-25T12:33:42.467Z,23
2023-06-25T12:34:47.815Z,23.02
2023-06-25T12:35:53.160Z,23.02
2023-06-25T12:36:58.481Z,23.02
2023-06-25T12:38:03.840Z,23.01
2023-06-25T12:39:09.178Z,23.03
2023-06-25T12:40:14.520Z,23.02
2023-06-25T12:41:19.829Z,23.03
2023-06-25T12:42:25.172Z,23.04
2023-06-25T12:43:30.519Z,23.04
2023-06-25T12:44:35.848Z,23.04
2023-06-25T12:45:41.161Z,23.04
2023-06-25T12:46:46.579Z,23.03
2023-06-25T12:47:52.080Z,23.04
2023-06-25T12:48:57.505Z,23.05
2023-06-25T12:50:02.868Z,23.06
2023-06-25T12:51:08.252Z,23.08
2023-06-25T12:52:13.602Z,23.06
2023-06-25T12:53:19.000Z,23.09
2023-06-25T12:54:24.634Z,23.11
2023-06-25T12:55:29.981Z,23.09
2023-06-25T12:56:35.296Z,23.12
2023-06-25T12:57:40.938Z,23.13
2023-06-25T12:58:46.492Z,23.13
2023-06-25T12:59:51.831Z,23.14
2023-06-25T13:01:06.090Z,23.13
2023-06-25T13:02:12.726Z,23.16
2023-06-25T13:03:18.118Z,23.16
2023-06-25T13:04:23.738Z,23.14
2023-06-25T13:05:29.384Z,23.16
2023-06-25T13:06:34.823Z,23.15
2023-06-25T13:07:40.164Z,23.16
2023-06-25T13:08:45.478Z,23.19
2023-06-25T13:09:52.526Z,23.18
2023-06-25T13:10:58.679Z,23.17
2023-06-25T13:12:04.007Z,23.19
2023-06-25T13:13:09.389Z,23.21
2023-06-25T13:14:14.918Z,23.22
2023-06-25T13:15:20.285Z,23.23
2023-06-25T13:16:25.603Z,23.21
2023-06-25T13:17:30.958Z,23.22
2023-06-25T13:18:36.326Z,23.22
2023-06-25T13:19:41.807Z,23.22
2023-06-25T13:20:47.161Z,23.24
2023-06-25T13:21:52.897Z,23.23
2023-06-25T13:22:58.224Z,23.22
2023-06-25T13:24:03.536Z,23.25
2023-06-25T13:25:09.074Z,23.24
2023-06-25T13:26:14.901Z,23.25
2023-06-25T13:27:20.434Z,23.25
2023-06-25T13:28:25.797Z,23.26
2023-06-25T13:29:31.112Z,23.26
2023-06-25T13:30:36.479Z,23.26
2023-06-25T13:31:41.946Z,23.26
2023-06-25T13:32:47.567Z,23.27
2023-06-25T13:33:52.968Z,23.25
2023-06-25T13:34:58.281Z,23.27
2023-06-25T13:36:03.729Z,23.27
2023-06-25T13:37:09.038Z,23.26
2023-06-25T13:38:14.577Z,23.29
2023-06-25T13:39:19.896Z,23.26
2023-06-25T13:40:25.234Z,23.29
2023-06-25T13:41:30.746Z,23.29
2023-06-25T13:42:36.079Z,23.29
2023-06-25T13:43:41.505Z,23.3
2023-06-25T13:44:46.830Z,23.3
2023-06-25T13:45:52.149Z,23.3
2023-06-25T13:46:57.507Z,23.28
2023-06-25T13:48:03.213Z,23.31
2023-06-25T13:49:08.835Z,23.29
2023-06-25T13:50:14.277Z,23.3
2023-06-25T13:51:19.656Z,23.32
2023-06-25T13:52:24.977Z,23.32
2023-06-25T13:53:30.448Z,23.3
2023-06-25T13:54:35.759Z,23.34
2023-06-25T13:55:41.376Z,23.33
2023-06-25T13:56:46.758Z,23.33
2023-06-25T13:57:52.090Z,23.33
2023-06-25T13:58:57.489Z,23.34
2023-06-25T14:00:03.036Z,23.35
2023-06-25T14:01:08.519Z,23.33
2023-06-25T14:02:13.822Z,23.35
2023-06-25T14:03:19.227Z,23.33
2023-06-25T14:04:24.908Z,23.33
2023-06-25T14:05:30.680Z,23.34
2023-06-25T14:06:36.044Z,23.36
2023-06-25T14:07:41.523Z,23.37